sensor_id;sensor_type;location;lat;lon;timestamp;pressure;altitude;pressure_sealevel;temperature;humidity
44734;BME280;30462;52.446;-1.930;2023-04-08T00:00:19;100948.6094;;;;
44734;BME280;30462;52.446;-1.930;2023-04-08T00:01:18;100949.043;;;;
44734;BME280;30462;52.446;-1.930;2023-04-08T00:02:18;100949.2969;;;;
44734;BME280;30462;52.446;-1.930;2023-04-08T00:03:18;100951.5586;;;;
44734;BME280;30462;52.446;-1.930;2023-04-08T00:04:18;100951.1914;;;;
44734;BME280;30462;52.446;-1.930;2023-04-08T00:05:18;100950.6211;;;;
44734;BME280;30462;52.446;-1.930;2023-04-08T00:06:18;100949.2852;;;;
44734;BME280;30462;52.446;-1.930;2023-04-08T00:07:17;100949.4805;;;;
44734;BME280;30462;52.446;-1.930;2023-04-08T00:08:18;100950.3047;;;;
44734;BME280;30462;52.446;-1.930;2023-04-08T00:09:18;100953.25;;;;
44734;BME280;30462;52.446;-1.930;2023-04-08T00:10:18;100953.1719;;;;
44734;BME280;30462;52.446;-1.930;2023-04-08T00:11:18;100951.0977;;;;
44734;BME280;30462;52.446;-1.930;2023-04-08T00:12:18;100952.6211;;;;
44734;BME280;30462;52.446;-1.930;2023-04-08T00:13:18;100948.875;;;;
44734;BME280;30462;52.446;-1.930;2023-04-08T00:14:18;100947.5156;;;;
44734;BME280;30462;52.446;-1.930;2023-04-08T00:15:18;100951.5195;;;;
44734;BME280;30462;52.446;-1.930;2023-04-08T00:16:18;100948.7461;;;;
44734;BME280;30462;52.446;-1.930;2023-04-08T00:17:18;100948.3125;;;;
44734;BME280;30462;52.446;-1.930;2023-04-08T00:18:18;100948.8203;;;;
44734;BME280;30462;52.446;-1.930;2023-04-08T00:19:18;100948.3477;;;;
44734;BME280;30462;52.446;-1.930;2023-04-08T00:20:18;100949.6797;;;;
44734;BME280;30462;52.446;-1.930;2023-04-08T00:21:18;100953.293;;;;
44734;BME280;30462;52.446;-1.930;2023-04-08T00:22:17;100950.5039;;;;
44734;BME280;30462;52.446;-1.930;2023-04-08T00:23:18;100952.6953;;;;
44734;BME280;30462;52.446;-1.930;2023-04-08T00:24:18;100952.6406;;;;
44734;BME280;30462;52.446;-1.930;2023-04-08T00:25:18;100954.2813;;;;
44734;BME280;30462;52.446;-1.930;2023-04-08T00:26:18;100953.0117;;;;
44734;BME280;30462;52.446;-1.930;2023-04-08T00:27:18;100949.8047;;;;
44734;BME280;30462;52.446;-1.930;2023-04-08T00:28:18;100949.9492;;;;
44734;BME280;30462;52.446;-1.930;2023-04-08T00:29:18;100946.7344;;;;
44734;BME280;30462;52.446;-1.930;2023-04-08T00:30:18;100950.5469;;;;
44734;BME280;30462;52.446;-1.930;2023-04-08T00:31:18;100949.1953;;;;
44734;BME280;30462;52.446;-1.930;2023-04-08T00:32:18;100950.4883;;;;
44734;BME280;30462;52.446;-1.930;2023-04-08T00:33:18;100951.5625;;;;
44734;BME280;30462;52.446;-1.930;2023-04-08T00:34:18;100949.5508;;;;
44734;BME280;30462;52.446;-1.930;2023-04-08T00:35:18;100949.1016;;;;
44734;BME280;30462;52.446;-1.930;2023-04-08T00:36:18;100948.5898;;;;
44734;BME280;30462;52.446;-1.930;2023-04-08T00:37:18;100947.5508;;;;
44734;BME280;30462;52.446;-1.930;2023-04-08T00:38:18;100951.6875;;;;
44734;BME280;30462;52.446;-1.930;2023-04-08T00:39:18;100952.4336;;;;
44734;BME280;30462;52.446;-1.930;2023-04-08T00:40:18;100951.1289;;;;
44734;BME280;30462;52.446;-1.930;2023-04-08T00:41:18;100952.2852;;;;
44734;BME280;30462;52.446;-1.930;2023-04-08T00:42:18;100952.7578;;;;
44734;BME280;30462;52.446;-1.930;2023-04-08T00:43:18;100952.4414;;;;
44734;BME280;30462;52.446;-1.930;2023-04-08T00:44:18;100951.8984;;;;
44734;BME280;30462;52.446;-1.930;2023-04-08T00:45:18;100954.6523;;;;
44734;BME280;30462;52.446;-1.930;2023-04-08T00:46:18;100953.6445;;;;
44734;BME280;30462;52.446;-1.930;2023-04-08T00:47:18;100955.1094;;;;
44734;BME280;30462;52.446;-1.930;2023-04-08T00:48:18;100956.1797;;;;
44734;BME280;30462;52.446;-1.930;2023-04-08T00:49:18;100956.207;;;;
44734;BME280;30462;52.446;-1.930;2023-04-08T00:50:18;100953.0664;;;;
44734;BME280;30462;52.446;-1.930;2023-04-08T00:51:18;100954.6875;;;;
44734;BME280;30462;52.446;-1.930;2023-04-08T00:52:18;100953.1289;;;;
44734;BME280;30462;52.446;-1.930;2023-04-08T00:53:18;100954.7148;;;;
44734;BME280;30462;52.446;-1.930;2023-04-08T00:54:18;100956.4766;;;;
44734;BME280;30462;52.446;-1.930;2023-04-08T00:55:18;100956.0625;;;;
44734;BME280;30462;52.446;-1.930;2023-04-08T00:56:18;100955.0664;;;;
44734;BME280;30462;52.446;-1.930;2023-04-08T00:57:18;100954.1055;;;;
44734;BME280;30462;52.446;-1.930;2023-04-08T00:58:18;100954.2422;;;;
44734;BME280;30462;52.446;-1.930;2023-04-08T00:59:18;100954.5508;;;;
44734;BME280;30462;52.446;-1.930;2023-04-08T01:00:18;100957.8125;;;;
44734;BME280;30462;52.446;-1.930;2023-04-08T01:01:21;100954.8242;;;;
44734;BME280;30462;52.446;-1.930;2023-04-08T01:02:22;100953.6094;;;;
44734;BME280;30462;52.446;-1.930;2023-04-08T01:03:22;100958.293;;;;
44734;BME280;30462;52.446;-1.930;2023-04-08T01:04:20;100957.4648;;;;
44734;BME280;30462;52.446;-1.930;2023-04-08T01:05:19;100957.793;;;;
44734;BME280;30462;52.446;-1.930;2023-04-08T01:06:22;100960.1289;;;;
44734;BME280;30462;52.446;-1.930;2023-04-08T01:07:21;100958.6172;;;;
44734;BME280;30462;52.446;-1.930;2023-04-08T01:08:18;100964.7109;;;;
44734;BME280;30462;52.446;-1.930;2023-04-08T01:09:19;100963.1563;;;;
44734;BME280;30462;52.446;-1.930;2023-04-08T01:10:19;100961.7813;;;;
44734;BME280;30462;52.446;-1.930;2023-04-08T01:11:18;100962.7578;;;;
44734;BME280;30462;52.446;-1.930;2023-04-08T01:12:19;100963.5;;;;
44734;BME280;30462;52.446;-1.930;2023-04-08T01:13:18;100964.4023;;;;
44734;BME280;30462;52.446;-1.930;2023-04-08T01:14:19;100960.0781;;;;
44734;BME280;30462;52.446;-1.930;2023-04-08T01:15:18;100963.1445;;;;
44734;BME280;30462;52.446;-1.930;2023-04-08T01:16:18;100964.4063;;;;
44734;BME280;30462;52.446;-1.930;2023-04-08T01:17:18;100961.707;;;;
44734;BME280;30462;52.446;-1.930;2023-04-08T01:18:18;100963.8711;;;;
44734;BME280;30462;52.446;-1.930;2023-04-08T01:19:20;100963.6367;;;;
44734;BME280;30462;52.446;-1.930;2023-04-08T01:20:18;100963.9648;;;;
44734;BME280;30462;52.446;-1.930;2023-04-08T01:21:18;100962.5586;;;;
44734;BME280;30462;52.446;-1.930;2023-04-08T01:22:22;100965.8281;;;;
44734;BME280;30462;52.446;-1.930;2023-04-08T01:23:22;100963.6523;;;;
44734;BME280;30462;52.446;-1.930;2023-04-08T01:24:22;100966.2891;;;;
44734;BME280;30462;52.446;-1.930;2023-04-08T01:25:18;100963.7266;;;;
44734;BME280;30462;52.446;-1.930;2023-04-08T01:26:19;100963.2109;;;;
44734;BME280;30462;52.446;-1.930;2023-04-08T01:27:18;100964.2422;;;;
44734;BME280;30462;52.446;-1.930;2023-04-08T01:28:18;100962.7188;;;;
44734;BME280;30462;52.446;-1.930;2023-04-08T01:29:18;100961.0781;;;;
44734;BME280;30462;52.446;-1.930;2023-04-08T01:30:20;100962.8555;;;;
44734;BME280;30462;52.446;-1.930;2023-04-08T01:31:18;100964.6172;;;;
44734;BME280;30462;52.446;-1.930;2023-04-08T01:32:18;100966.5742;;;;
44734;BME280;30462;52.446;-1.930;2023-04-08T01:33:17;100962.6328;;;;
44734;BME280;30462;52.446;-1.930;2023-04-08T01:34:18;100964.5859;;;;
44734;BME280;30462;52.446;-1.930;2023-04-08T01:35:18;100966.2617;;;;
44734;BME280;30462;52.446;-1.930;2023-04-08T01:36:18;100966.7891;;;;
44734;BME280;30462;52.446;-1.930;2023-04-08T01:37:18;100966.8164;;;;
44734;BME280;30462;52.446;-1.930;2023-04-08T01:38:19;100973.1406;;;;
44734;BME280;30462;52.446;-1.930;2023-04-08T01:39:18;100975.668;;;;
44734;BME280;30462;52.446;-1.930;2023-04-08T01:40:18;100972.3008;;;;
44734;BME280;30462;52.446;-1.930;2023-04-08T01:41:18;100969.0742;;;;
44734;BME280;30462;52.446;-1.930;2023-04-08T01:42:18;100966.6055;;;;
44734;BME280;30462;52.446;-1.930;2023-04-08T01:43:18;100967.4648;;;;
44734;BME280;30462;52.446;-1.930;2023-04-08T01:44:18;100969.043;;;;
44734;BME280;30462;52.446;-1.930;2023-04-08T01:45:18;100966.125;;;;
44734;BME280;30462;52.446;-1.930;2023-04-08T01:46:17;100966.8906;;;;
44734;BME280;30462;52.446;-1.930;2023-04-08T01:47:18;100969.4961;;;;
44734;BME280;30462;52.446;-1.930;2023-04-08T01:48:18;100968.8477;;;;
44734;BME280;30462;52.446;-1.930;2023-04-08T01:49:18;100967.5625;;;;
44734;BME280;30462;52.446;-1.930;2023-04-08T01:50:18;100964.7656;;;;
44734;BME280;30462;52.446;-1.930;2023-04-08T01:51:18;100967.1055;;;;
44734;BME280;30462;52.446;-1.930;2023-04-08T01:52:18;100965.8828;;;;
44734;BME280;30462;52.446;-1.930;2023-04-08T01:53:18;100968.8047;;;;
44734;BME280;30462;52.446;-1.930;2023-04-08T01:54:18;100969.9023;;;;
44734;BME280;30462;52.446;-1.930;2023-04-08T01:55:18;100968.1133;;;;
44734;BME280;30462;52.446;-1.930;2023-04-08T01:56:18;100973.2734;;;;
44734;BME280;30462;52.446;-1.930;2023-04-08T01:57:18;100976.5313;;;;
44734;BME280;30462;52.446;-1.930;2023-04-08T01:58:19;100975.1836;;;;
44734;BME280;30462;52.446;-1.930;2023-04-08T01:59:18;100971.9648;;;;
44734;BME280;30462;52.446;-1.930;2023-04-08T02:00:19;100976.4297;;;;
44734;BME280;30462;52.446;-1.930;2023-04-08T02:01:19;100979.5039;;;;
44734;BME280;30462;52.446;-1.930;2023-04-08T02:02:18;100981.5547;;;;
44734;BME280;30462;52.446;-1.930;2023-04-08T02:03:18;100978.2578;;;;
44734;BME280;30462;52.446;-1.930;2023-04-08T02:04:18;100976.5313;;;;
44734;BME280;30462;52.446;-1.930;2023-04-08T02:05:18;100980.1836;;;;
44734;BME280;30462;52.446;-1.930;2023-04-08T02:06:18;100980.5586;;;;
44734;BME280;30462;52.446;-1.930;2023-04-08T02:07:18;100980.4805;;;;
44734;BME280;30462;52.446;-1.930;2023-04-08T02:08:18;100979.6367;;;;
44734;BME280;30462;52.446;-1.930;2023-04-08T02:09:18;100977.3711;;;;
44734;BME280;30462;52.446;-1.930;2023-04-08T02:10:18;100978.6016;;;;
44734;BME280;30462;52.446;-1.930;2023-04-08T02:11:18;100979.8555;;;;
44734;BME280;30462;52.446;-1.930;2023-04-08T02:12:18;100983.1172;;;;
44734;BME280;30462;52.446;-1.930;2023-04-08T02:13:18;100978.9297;;;;
44734;BME280;30462;52.446;-1.930;2023-04-08T02:14:18;100975.6367;;;;
44734;BME280;30462;52.446;-1.930;2023-04-08T02:15:18;100976.1953;;;;
44734;BME280;30462;52.446;-1.930;2023-04-08T02:16:22;100977.2617;;;;
44734;BME280;30462;52.446;-1.930;2023-04-08T02:17:19;100978.7578;;;;
44734;BME280;30462;52.446;-1.930;2023-04-08T02:18:21;100976.4648;;;;
44734;BME280;30462;52.446;-1.930;2023-04-08T02:19:19;100975.1719;;;;
44734;BME280;30462;52.446;-1.930;2023-04-08T02:20:19;100973.7227;;;;
44734;BME280;30462;52.446;-1.930;2023-04-08T02:21:18;100972.4141;;;;
44734;BME280;30462;52.446;-1.930;2023-04-08T02:22:18;100974.8867;;;;
44734;BME280;30462;52.446;-1.930;2023-04-08T02:23:19;100976.1094;;;;
44734;BME280;30462;52.446;-1.930;2023-04-08T02:24:18;100977.9102;;;;
44734;BME280;30462;52.446;-1.930;2023-04-08T02:25:20;100980.9453;;;;
44734;BME280;30462;52.446;-1.930;2023-04-08T02:26:18;100981.5742;;;;
44734;BME280;30462;52.446;-1.930;2023-04-08T02:27:18;100979.1758;;;;
44734;BME280;30462;52.446;-1.930;2023-04-08T02:28:18;100981.6836;;;;
44734;BME280;30462;52.446;-1.930;2023-04-08T02:29:18;100981.8594;;;;
44734;BME280;30462;52.446;-1.930;2023-04-08T02:30:18;100981.2266;;;;
44734;BME280;30462;52.446;-1.930;2023-04-08T02:31:18;100982.6328;;;;
44734;BME280;30462;52.446;-1.930;2023-04-08T02:32:18;100980.6172;;;;
44734;BME280;30462;52.446;-1.930;2023-04-08T02:33:19;100981.5391;;;;
44734;BME280;30462;52.446;-1.930;2023-04-08T02:34:18;100985.7266;;;;
44734;BME280;30462;52.446;-1.930;2023-04-08T02:35:18;100986.5977;;;;
44734;BME280;30462;52.446;-1.930;2023-04-08T02:36:18;100988.4414;;;;
44734;BME280;30462;52.446;-1.930;2023-04-08T02:37:17;100987.1484;;;;
44734;BME280;30462;52.446;-1.930;2023-04-08T02:38:17;100986.625;;;;
44734;BME280;30462;52.446;-1.930;2023-04-08T02:39:17;100993.1758;;;;
44734;BME280;30462;52.446;-1.930;2023-04-08T02:41:18;100993.9844;;;;
44734;BME280;30462;52.446;-1.930;2023-04-08T02:42:18;100995.168;;;;
44734;BME280;30462;52.446;-1.930;2023-04-08T02:43:17;100994.1289;;;;
44734;BME280;30462;52.446;-1.930;2023-04-08T02:44:18;100997.2266;;;;
44734;BME280;30462;52.446;-1.930;2023-04-08T02:45:18;100999.5664;;;;
44734;BME280;30462;52.446;-1.930;2023-04-08T02:46:18;100995.7734;;;;
44734;BME280;30462;52.446;-1.930;2023-04-08T02:47:18;100999.4414;;;;
44734;BME280;30462;52.446;-1.930;2023-04-08T02:48:18;100996.8047;;;;
44734;BME280;30462;52.446;-1.930;2023-04-08T02:49:18;101000.7852;;;;
44734;BME280;30462;52.446;-1.930;2023-04-08T02:50:18;101000.9727;;;;
44734;BME280;30462;52.446;-1.930;2023-04-08T02:51:18;101000.5898;;;;
44734;BME280;30462;52.446;-1.930;2023-04-08T02:52:18;101000.1797;;;;
44734;BME280;30462;52.446;-1.930;2023-04-08T02:53:18;101003.6719;;;;
44734;BME280;30462;52.446;-1.930;2023-04-08T02:54:18;101000.668;;;;
44734;BME280;30462;52.446;-1.930;2023-04-08T02:55:18;101002.6289;;;;
44734;BME280;30462;52.446;-1.930;2023-04-08T02:56:18;100996.9375;;;;
44734;BME280;30462;52.446;-1.930;2023-04-08T02:57:18;101000.2031;;;;
44734;BME280;30462;52.446;-1.930;2023-04-08T02:58:18;101000.0391;;;;
44734;BME280;30462;52.446;-1.930;2023-04-08T02:59:18;101001.6875;;;;
44734;BME280;30462;52.446;-1.930;2023-04-08T03:00:18;101000.4414;;;;
44734;BME280;30462;52.446;-1.930;2023-04-08T03:01:18;101004.3008;;;;
44734;BME280;30462;52.446;-1.930;2023-04-08T03:02:18;101006.5781;;;;
44734;BME280;30462;52.446;-1.930;2023-04-08T03:03:18;101007.5313;;;;
44734;BME280;30462;52.446;-1.930;2023-04-08T03:04:18;101010.4063;;;;
44734;BME280;30462;52.446;-1.930;2023-04-08T03:05:18;101010.4375;;;;
44734;BME280;30462;52.446;-1.930;2023-04-08T03:06:18;101006.8516;;;;
44734;BME280;30462;52.446;-1.930;2023-04-08T03:07:18;101011.1719;;;;
44734;BME280;30462;52.446;-1.930;2023-04-08T03:08:18;101007.25;;;;
44734;BME280;30462;52.446;-1.930;2023-04-08T03:09:18;101011.1523;;;;
44734;BME280;30462;52.446;-1.930;2023-04-08T03:10:18;101010.043;;;;
44734;BME280;30462;52.446;-1.930;2023-04-08T03:11:18;101008.2148;;;;
44734;BME280;30462;52.446;-1.930;2023-04-08T03:12:18;101007.8594;;;;
44734;BME280;30462;52.446;-1.930;2023-04-08T03:13:18;101010.2656;;;;
44734;BME280;30462;52.446;-1.930;2023-04-08T03:14:18;101011.207;;;;
44734;BME280;30462;52.446;-1.930;2023-04-08T03:15:18;101008.1055;;;;
44734;BME280;30462;52.446;-1.930;2023-04-08T03:16:17;101009.4648;;;;
44734;BME280;30462;52.446;-1.930;2023-04-08T03:17:18;101005.9648;;;;
44734;BME280;30462;52.446;-1.930;2023-04-08T03:18:18;101009.9609;;;;
44734;BME280;30462;52.446;-1.930;2023-04-08T03:19:18;101013.3984;;;;
44734;BME280;30462;52.446;-1.930;2023-04-08T03:20:18;101011.1914;;;;
44734;BME280;30462;52.446;-1.930;2023-04-08T03:21:18;101010.1719;;;;
44734;BME280;30462;52.446;-1.930;2023-04-08T03:22:18;101011.2656;;;;
44734;BME280;30462;52.446;-1.930;2023-04-08T03:23:18;101008.1914;;;;
44734;BME280;30462;52.446;-1.930;2023-04-08T03:24:18;101009.7813;;;;
44734;BME280;30462;52.446;-1.930;2023-04-08T03:25:18;101010.3359;;;;
44734;BME280;30462;52.446;-1.930;2023-04-08T03:26:18;101011.7344;;;;
44734;BME280;30462;52.446;-1.930;2023-04-08T03:27:18;101010.5625;;;;
44734;BME280;30462;52.446;-1.930;2023-04-08T03:28:18;101011.4453;;;;
44734;BME280;30462;52.446;-1.930;2023-04-08T03:29:18;101010.0664;;;;
44734;BME280;30462;52.446;-1.930;2023-04-08T03:30:18;101006.0859;;;;
44734;BME280;30462;52.446;-1.930;2023-04-08T03:31:18;101010.5391;;;;
44734;BME280;30462;52.446;-1.930;2023-04-08T03:32:18;101008.7344;;;;
44734;BME280;30462;52.446;-1.930;2023-04-08T03:33:18;101007.332;;;;
44734;BME280;30462;52.446;-1.930;2023-04-08T03:34:18;101009.7031;;;;
44734;BME280;30462;52.446;-1.930;2023-04-08T03:35:18;101011.8906;;;;
44734;BME280;30462;52.446;-1.930;2023-04-08T03:36:18;101010.4141;;;;
44734;BME280;30462;52.446;-1.930;2023-04-08T03:37:18;101009.25;;;;
44734;BME280;30462;52.446;-1.930;2023-04-08T03:38:18;101011.8281;;;;
44734;BME280;30462;52.446;-1.930;2023-04-08T03:39:18;101012.3594;;;;
44734;BME280;30462;52.446;-1.930;2023-04-08T03:40:18;101010.2852;;;;
44734;BME280;30462;52.446;-1.930;2023-04-08T03:41:18;101012.8008;;;;
44734;BME280;30462;52.446;-1.930;2023-04-08T03:42:17;101012.6484;;;;
44734;BME280;30462;52.446;-1.930;2023-04-08T03:43:17;101011.543;;;;
44734;BME280;30462;52.446;-1.930;2023-04-08T03:44:18;101011.4922;;;;
44734;BME280;30462;52.446;-1.930;2023-04-08T03:45:18;101012.4102;;;;
44734;BME280;30462;52.446;-1.930;2023-04-08T03:46:18;101015.5469;;;;
44734;BME280;30462;52.446;-1.930;2023-04-08T03:47:18;101009.1172;;;;
44734;BME280;30462;52.446;-1.930;2023-04-08T03:48:18;101008.0273;;;;
44734;BME280;30462;52.446;-1.930;2023-04-08T03:49:17;101010.9102;;;;
44734;BME280;30462;52.446;-1.930;2023-04-08T03:50:18;101012.3789;;;;
44734;BME280;30462;52.446;-1.930;2023-04-08T03:51:18;101011.4258;;;;
44734;BME280;30462;52.446;-1.930;2023-04-08T03:52:18;101010.5898;;;;
44734;BME280;30462;52.446;-1.930;2023-04-08T03:53:18;101010.5898;;;;
44734;BME280;30462;52.446;-1.930;2023-04-08T03:54:18;101012.4883;;;;
44734;BME280;30462;52.446;-1.930;2023-04-08T03:55:18;101010.8242;;;;
44734;BME280;30462;52.446;-1.930;2023-04-08T03:56:18;101010.9844;;;;
44734;BME280;30462;52.446;-1.930;2023-04-08T03:57:18;101014.5156;;;;
44734;BME280;30462;52.446;-1.930;2023-04-08T03:58:18;101016.3633;;;;
44734;BME280;30462;52.446;-1.930;2023-04-08T03:59:18;101011.6836;;;;
44734;BME280;30462;52.446;-1.930;2023-04-08T04:00:18;101013.2773;;;;
44734;BME280;30462;52.446;-1.930;2023-04-08T04:01:18;101013.7969;;;;
44734;BME280;30462;52.446;-1.930;2023-04-08T04:02:18;101014.4922;;;;
44734;BME280;30462;52.446;-1.930;2023-04-08T04:03:18;101012.625;;;;
44734;BME280;30462;52.446;-1.930;2023-04-08T04:04:18;101016.3047;;;;
44734;BME280;30462;52.446;-1.930;2023-04-08T04:05:18;101013.3789;;;;
44734;BME280;30462;52.446;-1.930;2023-04-08T04:06:18;101015.9609;;;;
44734;BME280;30462;52.446;-1.930;2023-04-08T04:07:18;101016.1641;;;;
44734;BME280;30462;52.446;-1.930;2023-04-08T04:08:17;101015.4648;;;;
44734;BME280;30462;52.446;-1.930;2023-04-08T04:09:18;101015.6875;;;;
44734;BME280;30462;52.446;-1.930;2023-04-08T04:10:18;101015.9414;;;;
44734;BME280;30462;52.446;-1.930;2023-04-08T04:11:18;101015.9297;;;;
44734;BME280;30462;52.446;-1.930;2023-04-08T04:12:18;101017.4375;;;;
44734;BME280;30462;52.446;-1.930;2023-04-08T04:13:18;101017.5938;;;;
44734;BME280;30462;52.446;-1.930;2023-04-08T04:14:18;101019.0938;;;;
44734;BME280;30462;52.446;-1.930;2023-04-08T04:15:18;101018.6875;;;;
44734;BME280;30462;52.446;-1.930;2023-04-08T04:16:18;101019.2109;;;;
44734;BME280;30462;52.446;-1.930;2023-04-08T04:17:18;101019.4688;;;;
44734;BME280;30462;52.446;-1.930;2023-04-08T04:18:17;101021.4258;;;;
44734;BME280;30462;52.446;-1.930;2023-04-08T04:19:17;101023.8438;;;;
44734;BME280;30462;52.446;-1.930;2023-04-08T04:20:18;101020.6328;;;;
44734;BME280;30462;52.446;-1.930;2023-04-08T04:21:18;101018.6367;;;;
44734;BME280;30462;52.446;-1.930;2023-04-08T04:22:17;101023.0977;;;;
44734;BME280;30462;52.446;-1.930;2023-04-08T04:23:17;101019.9336;;;;
44734;BME280;30462;52.446;-1.930;2023-04-08T04:24:18;101023.2578;;;;
44734;BME280;30462;52.446;-1.930;2023-04-08T04:25:18;101021.0742;;;;
44734;BME280;30462;52.446;-1.930;2023-04-08T04:26:19;101021.1211;;;;
44734;BME280;30462;52.446;-1.930;2023-04-08T04:27:18;101022.9531;;;;
44734;BME280;30462;52.446;-1.930;2023-04-08T04:28:17;101022.9648;;;;
44734;BME280;30462;52.446;-1.930;2023-04-08T04:29:18;101024.7227;;;;
44734;BME280;30462;52.446;-1.930;2023-04-08T04:30:18;101023.5391;;;;
44734;BME280;30462;52.446;-1.930;2023-04-08T04:31:18;101021.2578;;;;
44734;BME280;30462;52.446;-1.930;2023-04-08T04:32:18;101023.6602;;;;
44734;BME280;30462;52.446;-1.930;2023-04-08T04:33:18;101024.4336;;;;
44734;BME280;30462;52.446;-1.930;2023-04-08T04:34:18;101024.7188;;;;
44734;BME280;30462;52.446;-1.930;2023-04-08T04:35:18;101026.1602;;;;
44734;BME280;30462;52.446;-1.930;2023-04-08T04:36:17;101026.0859;;;;
44734;BME280;30462;52.446;-1.930;2023-04-08T04:37:18;101029.1719;;;;
44734;BME280;30462;52.446;-1.930;2023-04-08T04:38:17;101030.5781;;;;
44734;BME280;30462;52.446;-1.930;2023-04-08T04:39:18;101030.6836;;;;
44734;BME280;30462;52.446;-1.930;2023-04-08T04:40:18;101032.3594;;;;
44734;BME280;30462;52.446;-1.930;2023-04-08T04:41:18;101033.6133;;;;
44734;BME280;30462;52.446;-1.930;2023-04-08T04:42:18;101035.6602;;;;
44734;BME280;30462;52.446;-1.930;2023-04-08T04:43:18;101033.8711;;;;
44734;BME280;30462;52.446;-1.930;2023-04-08T04:44:17;101036.1563;;;;
44734;BME280;30462;52.446;-1.930;2023-04-08T04:45:18;101036.3125;;;;
44734;BME280;30462;52.446;-1.930;2023-04-08T04:46:18;101034.2852;;;;
44734;BME280;30462;52.446;-1.930;2023-04-08T04:47:18;101032.6992;;;;
44734;BME280;30462;52.446;-1.930;2023-04-08T04:48:18;101039.5977;;;;
44734;BME280;30462;52.446;-1.930;2023-04-08T04:49:18;101038.9883;;;;
44734;BME280;30462;52.446;-1.930;2023-04-08T04:50:18;101039.8047;;;;
44734;BME280;30462;52.446;-1.930;2023-04-08T04:51:18;101041.8906;;;;
44734;BME280;30462;52.446;-1.930;2023-04-08T04:52:17;101042.875;;;;
44734;BME280;30462;52.446;-1.930;2023-04-08T04:53:18;101045.5664;;;;
44734;BME280;30462;52.446;-1.930;2023-04-08T04:54:18;101046.8516;;;;
44734;BME280;30462;52.446;-1.930;2023-04-08T04:55:18;101048.2852;;;;
44734;BME280;30462;52.446;-1.930;2023-04-08T04:56:18;101046.6289;;;;
44734;BME280;30462;52.446;-1.930;2023-04-08T04:57:18;101050.832;;;;
44734;BME280;30462;52.446;-1.930;2023-04-08T04:58:18;101051.0938;;;;
44734;BME280;30462;52.446;-1.930;2023-04-08T04:59:18;101049.7461;;;;
44734;BME280;30462;52.446;-1.930;2023-04-08T05:00:17;101049.3281;;;;
44734;BME280;30462;52.446;-1.930;2023-04-08T05:01:18;101050.1445;;;;
44734;BME280;30462;52.446;-1.930;2023-04-08T05:02:18;101053.4336;;;;
44734;BME280;30462;52.446;-1.930;2023-04-08T05:03:18;101054.8789;;;;
44734;BME280;30462;52.446;-1.930;2023-04-08T05:04:18;101056.6211;;;;
44734;BME280;30462;52.446;-1.930;2023-04-08T05:05:18;101057.668;;;;
44734;BME280;30462;52.446;-1.930;2023-04-08T05:06:18;101059.2422;;;;
44734;BME280;30462;52.446;-1.930;2023-04-08T05:07:18;101057.5273;;;;
44734;BME280;30462;52.446;-1.930;2023-04-08T05:08:18;101058.4297;;;;
44734;BME280;30462;52.446;-1.930;2023-04-08T05:09:18;101058.2617;;;;
44734;BME280;30462;52.446;-1.930;2023-04-08T05:10:18;101058.9961;;;;
44734;BME280;30462;52.446;-1.930;2023-04-08T05:11:18;101057.5117;;;;
44734;BME280;30462;52.446;-1.930;2023-04-08T05:12:18;101059.0156;;;;
44734;BME280;30462;52.446;-1.930;2023-04-08T05:13:18;101060.707;;;;
44734;BME280;30462;52.446;-1.930;2023-04-08T05:14:18;101061.9258;;;;
44734;BME280;30462;52.446;-1.930;2023-04-08T05:15:18;101067.5938;;;;
44734;BME280;30462;52.446;-1.930;2023-04-08T05:16:18;101065.8945;;;;
44734;BME280;30462;52.446;-1.930;2023-04-08T05:17:18;101067.7266;;;;
44734;BME280;30462;52.446;-1.930;2023-04-08T05:18:18;101068.4414;;;;
44734;BME280;30462;52.446;-1.930;2023-04-08T05:19:17;101073.7266;;;;
44734;BME280;30462;52.446;-1.930;2023-04-08T05:20:18;101079.4102;;;;
44734;BME280;30462;52.446;-1.930;2023-04-08T05:21:18;101073.8477;;;;
44734;BME280;30462;52.446;-1.930;2023-04-08T05:22:18;101072.8359;;;;
44734;BME280;30462;52.446;-1.930;2023-04-08T05:23:18;101074.8008;;;;
44734;BME280;30462;52.446;-1.930;2023-04-08T05:24:18;101070.9883;;;;
44734;BME280;30462;52.446;-1.930;2023-04-08T05:25:18;101072.7539;;;;
44734;BME280;30462;52.446;-1.930;2023-04-08T05:26:18;101071.4727;;;;
44734;BME280;30462;52.446;-1.930;2023-04-08T05:27:18;101073.9453;;;;
44734;BME280;30462;52.446;-1.930;2023-04-08T05:28:18;101077.6797;;;;
44734;BME280;30462;52.446;-1.930;2023-04-08T05:29:18;101078.1563;;;;
44734;BME280;30462;52.446;-1.930;2023-04-08T05:30:18;101083.375;;;;
44734;BME280;30462;52.446;-1.930;2023-04-08T05:31:18;101083.5508;;;;
44734;BME280;30462;52.446;-1.930;2023-04-08T05:32:18;101085.0898;;;;
44734;BME280;30462;52.446;-1.930;2023-04-08T05:33:18;101089.3086;;;;
44734;BME280;30462;52.446;-1.930;2023-04-08T05:34:18;101088.8867;;;;
44734;BME280;30462;52.446;-1.930;2023-04-08T05:35:18;101091.918;;;;
44734;BME280;30462;52.446;-1.930;2023-04-08T05:36:18;101093.4219;;;;
44734;BME280;30462;52.446;-1.930;2023-04-08T05:37:18;101095.9219;;;;
44734;BME280;30462;52.446;-1.930;2023-04-08T05:38:18;101096.8594;;;;
44734;BME280;30462;52.446;-1.930;2023-04-08T05:39:18;101097.7305;;;;
44734;BME280;30462;52.446;-1.930;2023-04-08T05:40:18;101097.7695;;;;
44734;BME280;30462;52.446;-1.930;2023-04-08T05:41:18;101099.9648;;;;
44734;BME280;30462;52.446;-1.930;2023-04-08T05:42:18;101098.668;;;;
44734;BME280;30462;52.446;-1.930;2023-04-08T05:43:18;101100.3672;;;;
44734;BME280;30462;52.446;-1.930;2023-04-08T05:44:18;101101.5039;;;;
44734;BME280;30462;52.446;-1.930;2023-04-08T05:45:18;101101.7773;;;;
44734;BME280;30462;52.446;-1.930;2023-04-08T05:46:18;101103.9063;;;;